EmailTwitter


Observations de surface / France / LFMP (07747)

Régions: Québec | Canada | États-Unis | Europe | France | UK | Ailleurs
Station
Affichage
Infos & localisation pour LFMP (07747) | Aide pour décoder les METARs

Observations prises le 2018-04-24 à 08H00 UTC à PERPIGNAN/RIVESA, FR (LFMP)

Température: 22.0 Celsius

Point de rosée: 12.0 Celsius

Humidité relative: 53%

Vents: Nord-ouest à 9 km/h ou 5 noeuds.

Pression au niveau moyen de la mer: 101.90 kilopascals.

Observation METAR:

LFMP 240800Z AUTO 30005KT 260V350 CAVOK 22/12 Q1019 NOSIG=